Boca de la Travesia, Argentina
Current Conditions -  °F | °C
As of 2:00 AM on Saturday 29 Nov 2014 (Local Time) from SAZN Reporting Station
Overcast Overcast  
Wind Chill: 63°   Ceiling: 10000
Heat Index: 63°   Visibility: 6mi
Dew Point: 41°   Wind: 10mph
Humidity: 45%   Direction: 230°SW
Pressure: 29.77"   Gusts: NA
Location:  40.32°S, 63.87°W
Report Text: SAZN 290500Z 23009KT 9999 SCT050 OVC100BKN200 17/05 Q1008
Loading
Personal Weather Stations






























Interactive Weather Map New forecast layout! Learn more

10-Day Weather Forecast

Advertisements
Track Severe Weather on mobile